Time;durP1;ratioP1;P1;durP2;ratioP2;P2;SDS_P1;SDS_P2;PMS_P1;PMS_P2;Temp;Humidity;BMP_temperature;BMP_pressure;BME280_temperature;BME280_humidity;BME280_pressure;Samples;Min_cycle;Max_cycle;Signal;HPM_P1;HPM_P2
2021/05/18 00:00:26;;;;;;;1.53;1.17;;;;;;;7.75;100.00;99881.81;5041725;28;20218;-73
2021/05/18 00:02:53;;;;;;;2.93;1.33;;;;;;;7.67;100.00;99884.63;5051852;28;20200;-73
2021/05/18 00:05:21;;;;;;;1.30;1.20;;;;;;;7.69;100.00;99885.41;5023405;28;20703;-73
2021/05/18 00:07:54;;;;;;;1.20;1.10;;;;;;;7.66;100.00;99887.25;5047441;28;20199;-73
2021/05/18 00:13:05;;;;;;;1.53;1.17;;;;;;;7.65;100.00;99883.81;5024942;28;20196;-73
2021/05/18 00:15:32;;;;;;;1.07;1.00;;;;;;;7.62;100.00;99888.22;5047081;28;20195;-73
2021/05/18 00:17:59;;;;;;;1.43;1.30;;;;;;;7.58;100.00;99900.38;5056150;28;20204;-73
2021/05/18 00:20:25;;;;;;;1.53;1.10;;;;;;;7.53;100.00;99895.34;5049296;28;20565;-73
2021/05/18 00:22:51;;;;;;;1.47;1.30;;;;;;;7.50;100.00;99895.41;5048347;28;20199;-73
2021/05/18 00:25:17;;;;;;;1.60;1.20;;;;;;;7.46;100.00;99898.09;5023367;28;20672;-73
2021/05/18 00:27:44;;;;;;;1.50;1.23;;;;;;;7.42;100.00;99891.31;5027565;28;20691;-73
2021/05/18 00:30:12;;;;;;;2.63;1.53;;;;;;;7.41;100.00;99887.88;5039991;28;20219;-73
2021/05/18 00:32:39;;;;;;;1.80;1.27;;;;;;;7.41;100.00;99894.81;5045230;28;20191;-73
2021/05/18 00:35:09;;;;;;;1.20;1.13;;;;;;;7.37;100.00;99894.88;5025681;28;20211;-73
2021/05/18 00:37:36;;;;;;;1.30;1.17;;;;;;;7.38;100.00;99896.56;5039392;28;20207;-73
2021/05/18 00:40:03;;;;;;;2.50;1.00;;;;;;;7.37;100.00;99900.06;5045806;28;20207;-73
2021/05/18 00:42:29;;;;;;;1.80;1.10;;;;;;;7.36;100.00;99903.53;5053762;28;20203;-73
2021/05/18 00:44:55;;;;;;;1.37;1.00;;;;;;;7.33;100.00;99897.56;5052596;28;20192;-73
2021/05/18 00:47:21;;;;;;;1.30;1.20;;;;;;;7.32;100.00;99901.91;5057726;28;20738;-73
2021/05/18 00:49:47;;;;;;;1.30;1.20;;;;;;;7.33;100.00;99898.41;5047101;28;20234;-73
2021/05/18 00:52:15;;;;;;;1.27;1.17;;;;;;;7.27;100.00;99905.50;5028942;28;20598;-73
2021/05/18 00:54:45;;;;;;;1.17;1.07;;;;;;;7.24;100.00;99901.22;5047864;28;20195;-73
2021/05/18 00:59:55;;;;;;;1.00;0.90;;;;;;;7.20;100.00;99899.59;5044072;28;20195;-75
2021/05/18 01:02:22;;;;;;;1.57;1.10;;;;;;;7.15;100.00;99897.13;5048459;28;20196;-75
2021/05/18 01:04:48;;;;;;;1.27;1.17;;;;;;;7.18;100.00;99902.22;5037001;28;20211;-75
2021/05/18 01:07:15;;;;;;;1.43;1.27;;;;;;;7.16;100.00;99905.75;5036924;28;20286;-75
2021/05/18 01:09:42;;;;;;;1.50;1.23;;;;;;;7.14;100.00;99904.91;5046609;28;20611;-75
2021/05/18 01:12:08;;;;;;;2.40;1.30;;;;;;;7.13;100.00;99905.84;5038317;28;20604;-73
2021/05/18 01:14:34;;;;;;;1.53;1.10;;;;;;;7.10;100.00;99911.91;5046035;28;20274;-73
2021/05/18 01:17:00;;;;;;;1.30;1.20;;;;;;;7.09;100.00;99912.81;5051757;28;20671;-73
2021/05/18 01:19:27;;;;;;;2.70;1.40;;;;;;;7.09;100.00;99917.13;5044261;28;20206;-73
2021/05/18 01:21:55;;;;;;;2.10;1.10;;;;;;;7.04;100.00;99922.44;5026209;28;20206;-73
2021/05/18 01:24:22;;;;;;;1.50;1.30;;;;;;;7.05;100.00;99923.28;5045695;28;20563;-73
2021/05/18 01:26:49;;;;;;;1.37;1.27;;;;;;;7.01;100.00;99925.09;5033220;28;20195;-73
2021/05/18 01:29:19;;;;;;;1.40;1.30;;;;;;;6.99;100.00;99932.06;5028479;28;20210;-73
2021/05/18 01:31:46;;;;;;;1.97;1.30;;;;;;;6.95;100.00;99927.84;5043687;28;20220;-73
2021/05/18 01:34:14;;;;;;;2.30;1.10;;;;;;;6.94;100.00;99931.31;5028218;28;20208;-73
2021/05/18 01:36:42;;;;;;;1.37;1.20;;;;;;;6.89;100.00;99936.59;5048987;28;20191;-73
2021/05/18 01:39:27;;;;;;;1.30;1.20;;;;;;;6.91;100.00;99939.16;5043673;28;20308;-73
2021/05/18 01:44:37;;;;;;;2.37;1.20;;;;;;;6.88;100.00;99946.97;5035421;28;20222;-73
2021/05/18 01:47:05;;;;;;;1.37;1.20;;;;;;;6.85;100.00;99947.91;5051640;28;20196;-73
2021/05/18 01:49:38;;;;;;;2.57;1.20;;;;;;;6.81;100.00;99944.53;5030956;28;20215;-73
2021/05/18 01:52:07;;;;;;;1.33;1.23;;;;;;;6.83;100.00;99944.50;5022960;28;20578;-73
2021/05/18 01:54:35;;;;;;;1.43;1.33;;;;;;;6.77;100.00;99955.00;5047787;28;20602;-73
2021/05/18 01:57:18;;;;;;;1.33;1.23;;;;;;;6.76;100.00;99951.56;5041256;28;20257;-73
2021/05/18 01:59:51;;;;;;;1.67;1.00;;;;;;;6.76;100.00;99953.31;5017793;28;20202;-73
2021/05/18 02:02:23;;;;;;;1.43;1.20;;;;;;;6.78;100.00;99962.72;5029184;28;20199;-73
2021/05/18 02:04:58;;;;;;;1.30;1.20;;;;;;;6.80;100.00;99962.69;5039296;28;20736;-73
2021/05/18 02:07:37;;;;;;;1.43;1.33;;;;;;;6.84;100.00;99964.34;5028678;28;20804;-73
2021/05/18 02:10:06;;;;;;;1.40;1.30;;;;;;;6.87;100.00;99969.47;5040735;28;20215;-73
2021/05/18 02:12:33;;;;;;;1.43;1.33;;;;;;;6.79;100.00;99966.19;5027601;28;20211;-73
2021/05/18 02:15:06;;;;;;;1.53;1.30;;;;;;;6.66;100.00;99972.50;5040449;28;20328;-73
2021/05/18 02:17:36;;;;;;;1.50;1.10;;;;;;;6.58;100.00;99977.84;5025740;28;20200;-73
2021/05/18 02:20:18;;;;;;;1.23;1.10;;;;;;;6.70;100.00;99977.59;5031769;28;20269;-73
2021/05/18 02:25:38;;;;;;;1.60;1.30;;;;;;;6.64;100.00;99977.72;5054898;28;20569;-73
2021/05/18 02:28:08;;;;;;;2.30;1.40;;;;;;;6.61;100.00;99980.34;5028834;28;20203;-73
2021/05/18 02:30:40;;;;;;;1.43;1.33;;;;;;;6.64;100.00;99985.47;5024138;28;20230;-73
2021/05/18 02:33:08;;;;;;;1.50;1.40;;;;;;;6.56;100.00;99985.66;5045584;28;20285;-73
2021/05/18 02:35:37;;;;;;;1.23;1.20;;;;;;;6.65;100.00;99979.44;5020853;28;20208;-73
2021/05/18 02:38:03;;;;;;;1.20;1.10;;;;;;;6.57;100.00;99983.91;5047860;28;20311;-73
2021/05/18 02:40:31;;;;;;;1.33;1.23;;;;;;;6.59;100.00;99982.13;5035531;28;20722;-73
2021/05/18 02:42:58;;;;;;;2.30;1.03;;;;;;;6.54;100.00;99989.13;5045843;28;20230;-73
2021/05/18 02:45:30;;;;;;;1.17;1.07;;;;;;;6.52;100.00;99983.97;5050365;28;20262;-73
2021/05/18 02:50:51;;;;;;;1.30;1.20;;;;;;;6.51;100.00;99991.78;5008663;28;20293;-73
2021/05/18 02:53:27;;;;;;;2.13;1.33;;;;;;;6.53;100.00;99996.06;5027565;28;20214;-73
2021/05/18 02:56:01;;;;;;;2.33;1.20;;;;;;;6.63;100.00;99995.00;5039421;28;20864;-73
2021/05/18 02:58:31;;;;;;;1.03;1.03;;;;;;;6.66;100.00;100003.59;5040664;28;20694;-73
2021/05/18 03:00:57;;;;;;;1.17;1.07;;;;;;;6.64;100.00;100004.47;5043928;28;20791;-73
2021/05/18 03:03:23;;;;;;;2.03;1.20;;;;;;;6.61;100.00;100007.13;5048325;28;20209;-73
2021/05/18 03:05:49;;;;;;;1.17;1.07;;;;;;;6.59;100.00;100006.28;5025916;28;20701;-73
2021/05/18 03:08:15;;;;;;;1.83;1.17;;;;;;;6.66;100.00;100008.78;5029196;28;20275;-73
2021/05/18 03:10:41;;;;;;;1.50;1.30;;;;;;;6.66;100.00;100011.38;5046441;28;20219;-73
2021/05/18 03:13:07;;;;;;;1.30;1.20;;;;;;;6.63;100.00;100005.38;5044277;28;20276;-73
2021/05/18 03:15:34;;;;;;;1.40;1.23;;;;;;;6.59;100.00;100013.22;5029737;28;20253;-73
2021/05/18 03:18:00;;;;;;;1.73;1.47;;;;;;;6.52;100.00;100016.81;5047094;28;20195;-73
2021/05/18 03:20:27;;;;;;;1.20;1.20;;;;;;;6.50;100.00;100019.41;5042765;28;20768;-73
2021/05/18 03:22:53;;;;;;;2.93;1.33;;;;;;;6.43;100.00;100015.25;5054610;28;20667;-73
2021/05/18 03:25:20;;;;;;;1.30;1.20;;;;;;;6.39;100.00;100011.03;5047834;28;20199;-73
2021/05/18 03:27:46;;;;;;;1.57;1.30;;;;;;;6.43;100.00;100012.66;5039785;28;20199;-73
2021/05/18 03:30:24;;;;;;;1.17;1.03;;;;;;;6.43;100.00;100015.25;5038677;28;20216;-73
2021/05/18 03:35:36;;;;;;;1.90;1.20;;;;;;;6.48;100.00;100018.59;5043263;28;20214;-73
2021/05/18 03:38:06;;;;;;;1.90;1.30;;;;;;;6.53;100.00;100027.16;5042010;28;20225;-73
2021/05/18 03:40:33;;;;;;;1.77;1.50;;;;;;;6.57;100.00;100030.53;5039035;28;20211;-73
2021/05/18 03:43:06;;;;;;;1.97;1.40;;;;;;;6.60;100.00;100033.06;5028215;28;20668;-73
2021/05/18 03:45:35;;;;;;;1.30;1.20;;;;;;;6.63;100.00;100036.44;5042659;28;20195;-73
2021/05/18 03:53:41;;;;;;;1.70;1.60;;;;;;;6.78;100.00;100034.44;5044757;28;20612;-73
2021/05/18 03:59:04;;;;;;;1.57;1.47;;;;;;;6.98;100.00;100040.09;5027243;28;20233;-73
2021/05/18 04:04:17;;;;;;;2.07;1.80;;;;;;;7.23;100.00;100039.56;5021648;28;20196;-73
2021/05/18 04:12:43;;;;;;;1.70;1.60;;;;;;;7.84;100.00;100039.03;5050421;28;20291;-73
2021/05/18 04:18:00;;;;;;;2.57;2.00;;;;;;;8.24;100.00;100046.69;5039443;28;20206;-73
2021/05/18 04:20:36;;;;;;;1.80;1.67;;;;;;;8.44;100.00;100046.22;5039657;28;20291;-73
2021/05/18 04:23:24;;;;;;;2.20;1.87;;;;;;;8.61;100.00;100050.94;5028212;28;20708;-73
2021/05/18 04:26:23;;;;;;;2.20;2.00;;;;;;;8.83;100.00;100052.94;5034159;28;20207;-73
2021/05/18 04:50:51;;;;;;;3.00;1.70;;;;;;;10.27;96.62;100091.06;5036147;28;20234;-73
2021/05/18 04:53:23;;;;;;;2.17;1.73;;;;;;;10.30;97.73;100083.16;5036851;28;20726;-73
2021/05/18 05:01:15;;;;;;;4.30;1.57;;;;;;;10.29;95.83;100099.69;5029846;28;20227;-73
2021/05/18 05:03:56;;;;;;;1.70;1.37;;;;;;;10.35;96.76;100096.91;5052898;28;20202;-74
2021/05/18 05:06:27;;;;;;;1.80;1.60;;;;;;;10.42;96.06;100098.41;5037451;28;20201;-73
2021/05/18 05:09:02;;;;;;;1.53;1.43;;;;;;;10.46;96.67;100104.38;5044341;28;20198;-73
2021/05/18 05:14:19;;;;;;;1.67;1.43;;;;;;;10.56;96.31;100103.16;5033417;28;20196;-74
2021/05/18 05:16:45;;;;;;;1.80;1.53;;;;;;;10.54;95.77;100110.19;5044871;28;20195;-73
2021/05/18 05:19:11;;;;;;;1.90;1.70;;;;;;;10.58;95.36;100111.75;5041806;28;20201;-73
2021/05/18 05:21:37;;;;;;;3.17;1.70;;;;;;;10.58;95.70;100117.81;5025124;28;20219;-73
2021/05/18 05:24:06;;;;;;;1.80;1.60;;;;;;;10.64;95.82;100115.91;5045380;28;20537;-73
2021/05/18 05:26:34;;;;;;;3.03;1.70;;;;;;;10.64;95.23;100118.53;5010137;28;20223;-73
2021/05/18 05:29:00;;;;;;;2.13;1.57;;;;;;;10.71;95.44;100112.19;5048088;28;20204;-73
2021/05/18 05:31:26;;;;;;;1.83;1.60;;;;;;;10.70;95.39;100116.56;5038856;28;20254;-73
2021/05/18 05:33:52;;;;;;;4.03;2.00;;;;;;;10.73;95.24;100119.06;5035852;28;20202;-73
2021/05/18 05:36:18;;;;;;;3.53;2.30;;;;;;;10.80;95.16;100123.16;5040850;28;20196;-73
2021/05/18 05:38:44;;;;;;;2.90;2.20;;;;;;;10.82;94.45;100124.84;5041862;28;20218;-73
2021/05/18 05:41:11;;;;;;;3.47;2.30;;;;;;;10.93;94.14;100131.41;5035282;28;20274;-73
2021/05/18 05:43:37;;;;;;;5.40;2.37;;;;;;;11.02;93.57;100134.59;5039720;28;20207;-73
2021/05/18 05:46:03;;;;;;;2.97;2.27;;;;;;;11.01;92.58;100140.69;5034771;28;20254;-73
2021/05/18 05:48:29;;;;;;;3.70;2.70;;;;;;;11.03;92.96;100139.75;5047624;28;20677;-73
2021/05/18 05:50:55;;;;;;;4.77;2.70;;;;;;;11.04;91.81;100141.44;5043568;28;20226;-74
2021/05/18 05:53:21;;;;;;;2.93;2.50;;;;;;;11.09;93.45;100144.75;5039380;28;20249;-73
2021/05/18 05:55:47;;;;;;;3.10;2.33;;;;;;;11.16;93.63;100145.38;5044296;28;20202;-73
2021/05/18 05:58:14;;;;;;;4.63;2.97;;;;;;;11.25;93.50;100146.81;5045456;28;20206;-73
2021/05/18 06:00:40;;;;;;;7.77;3.13;;;;;;;11.27;92.92;100155.41;5038215;28;20215;-73
2021/05/18 06:03:06;;;;;;;4.70;3.10;;;;;;;11.27;92.85;100150.19;5039165;28;20200;-73
2021/05/18 06:05:32;;;;;;;3.63;3.20;;;;;;;11.26;91.50;100162.41;5038507;28;20201;-73
2021/05/18 06:07:59;;;;;;;3.73;3.10;;;;;;;11.26;91.26;100161.56;5036670;28;20314;-73
2021/05/18 06:10:28;;;;;;;4.40;3.17;;;;;;;11.23;91.59;100159.91;5044040;28;20235;-73
2021/05/18 06:13:15;;;;;;;4.50;3.27;;;;;;;11.26;92.21;100157.19;5047596;28;20215;-73
2021/05/18 06:16:24;;;;;;;4.10;2.97;;;;;;;11.36;91.71;100158.56;5045509;28;20283;-73
2021/05/18 06:34:01;;;;;;;7.07;3.70;;;;;;;11.81;90.27;100172.53;5042162;28;20273;-73
2021/05/18 06:46:53;;;;;;;4.93;4.30;;;;;;;12.21;89.34;100194.53;5026705;28;20676;-73
2021/05/18 06:49:20;;;;;;;4.83;4.07;;;;;;;12.33;88.76;100195.81;5032211;28;20209;-74
2021/05/18 06:51:46;;;;;;;6.30;4.43;;;;;;;12.37;87.81;100201.78;5046329;28;20363;-74
2021/05/18 06:54:12;;;;;;;5.40;4.10;;;;;;;12.42;88.06;100200.66;5034180;28;20204;-73
2021/05/18 06:56:40;;;;;;;6.87;4.53;;;;;;;12.44;88.14;100204.06;5034006;28;20207;-73
2021/05/18 07:01:53;;;;;;;4.83;4.20;;;;;;;12.54;89.29;100208.91;5037106;28;20216;-73
2021/05/18 07:04:20;;;;;;;9.93;4.50;;;;;;;12.52;88.56;100211.59;5046039;28;20198;-74
2021/05/18 07:06:50;;;;;;;6.93;5.60;;;;;;;12.30;87.34;100222.91;5022162;28;20854;-74
2021/05/18 07:09:16;;;;;;;5.93;4.90;;;;;;;12.27;87.73;100214.34;5042600;28;20208;-73
2021/05/18 07:11:42;;;;;;;6.10;5.07;;;;;;;12.48;88.05;100223.09;5040137;28;22092;-73
2021/05/18 07:14:08;;;;;;;6.93;5.70;;;;;;;12.68;88.74;100222.28;5041279;28;20212;-74
2021/05/18 07:16:35;;;;;;;8.17;5.97;;;;;;;12.72;87.23;100229.09;5023537;28;20214;-74
2021/05/18 07:19:01;;;;;;;8.30;6.07;;;;;;;12.57;86.76;100229.72;5043544;28;20816;-73
2021/05/18 07:21:28;;;;;;;7.73;6.40;;;;;;;12.63;87.75;100240.78;5035207;28;20222;-73
2021/05/18 07:23:55;;;;;;;7.20;5.60;;;;;;;12.71;88.09;100235.22;5052408;28;20198;-74
2021/05/18 07:26:21;;;;;;;7.83;6.10;;;;;;;12.70;86.34;100238.78;5038680;28;20207;-73
2021/05/18 07:28:47;;;;;;;8.17;6.10;;;;;;;12.65;87.53;100240.72;5042236;28;20306;-74
2021/05/18 07:31:13;;;;;;;7.90;5.93;;;;;;;12.59;86.93;100238.34;5034746;28;20273;-74
2021/05/18 07:33:39;;;;;;;7.20;5.50;;;;;;;12.60;87.79;100242.69;5046411;28;20199;-74
2021/05/18 07:36:08;;;;;;;6.57;5.53;;;;;;;12.52;88.79;100240.34;5037056;28;20204;-74
2021/05/18 07:38:36;;;;;;;6.37;5.57;;;;;;;12.41;88.42;100238.19;5043760;28;20209;-73
2021/05/18 07:41:03;;;;;;;8.03;6.17;;;;;;;12.35;88.38;100237.56;5017150;28;20592;-74
2021/05/18 07:43:29;;;;;;;6.83;5.77;;;;;;;12.46;89.26;100243.22;5041793;28;20203;-73
2021/05/18 07:45:56;;;;;;;6.57;5.73;;;;;;;12.39;87.88;100244.38;5025635;28;20580;-74
2021/05/18 07:48:25;;;;;;;8.43;6.20;;;;;;;12.42;88.70;100246.88;5040811;28;20195;-74
2021/05/18 07:50:59;;;;;;;6.70;5.73;;;;;;;12.51;89.74;100243.91;5037952;28;20232;-74
2021/05/18 08:07:06;;;;;;;6.37;5.10;;;;;;;12.88;87.35;100258.09;5033404;28;20196;-73
2021/05/18 08:09:35;;;;;;;6.50;5.20;;;;;;;12.98;86.54;100262.03;5037268;28;20253;-73
2021/05/18 08:12:01;;;;;;;8.37;6.10;;;;;;;12.92;84.13;100266.66;5034191;28;20219;-73
2021/05/18 08:14:28;;;;;;;8.00;5.37;;;;;;;13.11;83.64;100270.22;5038514;28;20187;-74
2021/05/18 08:17:07;;;;;;;6.77;5.43;;;;;;;13.39;83.33;100266.44;5034936;28;20207;-74
2021/05/18 08:22:43;;;;;;;6.90;5.10;;;;;;;13.79;79.93;100264.66;5038390;28;20207;-74
2021/05/18 09:50:40;;;;;;;0.80;0.80;;;;;;;13.95;71.68;100343.47;5026791;28;20277;-74
2021/05/18 10:16:28;;;;;;;1.47;1.00;;;;;;;15.42;66.13;100324.25;5037309;28;20196;-74
2021/05/18 10:35:39;;;;;;;1.50;1.10;;;;;;;16.39;60.39;100319.16;5038954;28;20288;-74
2021/05/18 10:38:07;;;;;;;1.10;1.00;;;;;;;16.12;59.27;100325.00;5044028;28;20229;-74
2021/05/18 10:40:35;;;;;;;1.57;1.27;;;;;;;16.38;57.71;100328.00;5038695;28;20223;-73
2021/05/18 10:43:09;;;;;;;1.83;1.43;;;;;;;16.72;58.07;100326.09;5040963;28;20207;-74
2021/05/18 10:46:11;;;;;;;2.20;1.30;;;;;;;16.47;59.46;100323.06;5041459;28;20231;-74
2021/05/18 10:49:11;;;;;;;1.60;1.50;;;;;;;15.92;61.04;100330.44;5039846;28;20230;-73
2021/05/18 10:51:43;;;;;;;3.30;2.40;;;;;;;15.71;60.61;100328.00;4931223;28;20314;-74
2021/05/18 10:54:37;;;;;;;5.17;2.00;;;;;;;15.55;60.35;100330.59;4925190;28;20317;-74
2021/05/18 10:57:21;;;;;;;2.53;1.67;;;;;;;15.33;60.47;100331.66;5009375;28;20202;-73
2021/05/18 10:59:55;;;;;;;1.97;1.77;;;;;;;15.42;62.14;100332.13;5039586;28;20199;-74
2021/05/18 11:02:25;;;;;;;5.13;3.97;;;;;;;15.46;62.81;100331.91;5041940;28;20207;-74
2021/05/18 11:04:53;;;;;;;2.73;2.17;;;;;;;15.45;61.93;100327.56;5047079;28;20203;-73
2021/05/18 11:07:21;;;;;;;3.87;2.43;;;;;;;15.34;62.27;100333.38;5039127;28;20203;-73
2021/05/18 11:09:49;;;;;;;4.00;2.47;;;;;;;15.33;62.58;100334.28;5041603;28;20271;-73
2021/05/18 11:12:18;;;;;;;4.63;2.30;;;;;;;15.38;61.75;100334.06;5041643;28;20277;-74
2021/05/18 11:14:47;;;;;;;3.27;1.80;;;;;;;15.27;63.01;100328.53;5039726;28;20191;-74
2021/05/18 11:17:17;;;;;;;2.57;2.10;;;;;;;15.26;61.79;100330.28;5028927;28;20200;-73
2021/05/18 11:19:51;;;;;;;6.10;2.80;;;;;;;15.34;62.19;100329.91;5032692;28;20412;-73
2021/05/18 11:23:18;;;;;;;3.00;2.03;;;;;;;15.38;62.88;100328.81;5037590;28;20574;-74
2021/05/18 11:25:05;;;;;;;2.07;1.70;;;;;;;15.32;62.80;100324.72;5042623;28;20238;-74
2021/05/18 11:27:32;;;;;;;2.73;1.90;;;;;;;15.50;63.96;100320.31;5022427;28;20719;-73
2021/05/18 11:29:58;;;;;;;2.87;1.70;;;;;;;15.87;62.17;100325.47;5041437;28;20749;-74
2021/05/18 11:32:25;;;;;;;2.60;1.53;;;;;;;15.98;59.53;100317.84;5037262;28;20200;-74
2021/05/18 11:34:57;;;;;;;1.93;1.50;;;;;;;16.22;59.22;100312.19;5041416;28;20195;-74
2021/05/18 11:37:25;;;;;;;3.10;1.70;;;;;;;16.33;58.80;100303.72;5037064;28;20210;-74
2021/05/18 11:40:07;;;;;;;2.97;1.70;;;;;;;16.45;59.34;100305.66;5043295;28;20186;-74
2021/05/18 11:42:34;;;;;;;2.67;1.80;;;;;;;16.40;57.96;100307.69;5035777;28;20211;-74
2021/05/18 11:45:06;;;;;;;2.27;1.63;;;;;;;16.64;57.97;100298.44;5016525;28;20603;-73
2021/05/18 11:47:32;;;;;;;2.63;1.37;;;;;;;16.92;59.71;100298.66;5022420;28;20239;-74
2021/05/18 11:49:58;;;;;;;2.77;1.63;;;;;;;16.93;58.56;100298.56;5042222;28;20223;-74
2021/05/18 11:52:24;;;;;;;1.50;1.40;;;;;;;16.47;56.89;100306.44;5031073;28;20214;-74
2021/05/18 11:54:50;;;;;;;2.93;1.50;;;;;;;16.30;58.60;100303.88;5036670;28;20710;-73
2021/05/18 11:57:16;;;;;;;2.10;1.30;;;;;;;16.34;56.85;100306.25;5039072;28;20239;-74
2021/05/18 11:59:43;;;;;;;2.17;1.50;;;;;;;16.14;55.58;100303.88;5034914;28;20252;-73
2021/05/18 12:02:09;;;;;;;1.80;1.40;;;;;;;16.06;56.55;100305.13;5020632;28;21361;-73
2021/05/18 12:04:37;;;;;;;2.30;1.80;;;;;;;16.21;58.11;100305.22;5042762;28;20196;-74
2021/05/18 12:07:05;;;;;;;1.50;1.40;;;;;;;16.19;55.90;100307.09;5039088;28;20200;-73
2021/05/18 12:09:33;;;;;;;3.57;1.70;;;;;;;16.17;57.19;100298.44;5039793;28;20207;-73
2021/05/18 12:12:00;;;;;;;3.80;1.77;;;;;;;16.27;58.48;100297.00;5042947;28;20236;-73
2021/05/18 12:14:27;;;;;;;2.50;1.60;;;;;;;16.14;56.57;100301.25;5044897;28;20198;-73
2021/05/18 12:16:54;;;;;;;3.33;1.33;;;;;;;15.97;55.19;100303.00;5041421;28;20214;-74
2021/05/18 12:19:21;;;;;;;1.50;1.40;;;;;;;15.70;55.11;100310.53;5044853;28;20202;-73
2021/05/18 12:21:49;;;;;;;3.13;1.50;;;;;;;15.53;56.23;100311.41;5036814;28;20985;-74
2021/05/18 12:24:17;;;;;;;2.47;1.40;;;;;;;15.61;57.60;100317.13;5028392;28;20245;-73
2021/05/18 12:26:49;;;;;;;2.57;1.60;;;;;;;15.67;57.39;100316.81;5039033;28;20651;-73
2021/05/18 12:29:26;;;;;;;4.97;1.60;;;;;;;15.49;58.75;100315.13;5041500;28;20573;-73
2021/05/18 12:31:54;;;;;;;1.60;1.30;;;;;;;15.34;56.58;100320.25;5037182;28;20246;-73
2021/05/18 12:34:28;;;;;;;2.33;1.53;;;;;;;15.47;56.86;100309.94;5041032;28;20804;-73
2021/05/18 12:36:55;;;;;;;2.63;1.63;;;;;;;15.59;57.49;100318.13;5044371;28;20209;-73
2021/05/18 12:39:21;;;;;;;2.37;1.67;;;;;;;15.68;56.61;100307.13;5040945;28;20207;-73
2021/05/18 12:45:35;;;;;;;1.50;1.40;;;;;;;15.83;55.64;100309.00;5039802;28;20203;-73
2021/05/18 12:48:02;;;;;;;2.63;1.67;;;;;;;15.74;56.49;100312.06;5024842;28;20196;-73
2021/05/18 12:50:36;;;;;;;2.43;1.70;;;;;;;16.02;54.36;100313.25;5035883;28;20726;-73
2021/05/18 12:53:02;;;;;;;2.77;1.90;;;;;;;16.44;57.57;100304.78;5045067;28;20636;-73
2021/05/18 12:55:30;;;;;;;3.17;1.60;;;;;;;16.64;56.72;100308.13;5043576;28;20214;-73
2021/05/18 12:57:59;;;;;;;2.23;1.80;;;;;;;16.68;52.48;100325.44;5043235;28;20199;-74
2021/05/18 13:00:31;;;;;;;3.20;1.80;;;;;;;16.53;54.43;100313.13;5039562;28;20219;-74
2021/05/18 13:03:10;;;;;;;3.80;1.80;;;;;;;16.47;54.10;100309.06;5045758;28;20278;-74
2021/05/18 13:05:36;;;;;;;3.23;1.83;;;;;;;16.69;54.05;100310.47;5035885;28;20641;-73
2021/05/18 13:08:17;;;;;;;3.37;2.00;;;;;;;16.44;55.20;100307.44;5044157;28;20203;-74
2021/05/18 13:10:51;;;;;;;3.17;2.40;;;;;;;16.31;53.81;100316.94;5039278;28;20218;-74
2021/05/18 13:13:18;;;;;;;2.73;1.63;;;;;;;16.22;54.33;100323.56;5048650;28;20203;-74
2021/05/18 13:15:44;;;;;;;2.27;1.73;;;;;;;16.22;54.53;100320.09;5040544;28;20203;-74
2021/05/18 13:18:13;;;;;;;6.43;5.30;;;;;;;16.35;54.06;100320.25;5027051;28;20191;-74
2021/05/18 13:20:44;;;;;;;4.10;1.80;;;;;;;16.65;55.98;100307.16;5043131;28;20345;-74
2021/05/18 13:23:17;;;;;;;2.20;2.00;;;;;;;16.66;55.96;100309.72;5035901;28;20727;-74
2021/05/18 13:28:27;;;;;;;3.97;2.60;;;;;;;16.64;54.89;100316.84;5041559;28;20333;-74
2021/05/18 13:30:53;;;;;;;3.83;2.20;;;;;;;16.81;55.06;100321.16;5050909;28;20297;-74
2021/05/18 13:33:20;;;;;;;3.10;1.80;;;;;;;16.76;53.63;100331.13;5041688;28;20802;-74
2021/05/18 13:35:46;;;;;;;2.43;1.40;;;;;;;16.73;52.51;100323.38;5027795;28;20200;-74
2021/05/18 13:38:12;;;;;;;3.17;1.60;;;;;;;16.76;53.98;100315.31;5042359;28;20730;-74
2021/05/18 13:40:39;;;;;;;2.57;1.80;;;;;;;17.02;51.66;100318.25;5035728;28;20218;-74
2021/05/18 13:43:05;;;;;;;2.13;1.40;;;;;;;17.42;55.26;100308.84;5040617;28;20196;-74
2021/05/18 13:45:31;;;;;;;2.73;1.70;;;;;;;17.16;50.86;100318.28;5041867;28;20249;-74
2021/05/18 13:47:58;;;;;;;1.57;1.37;;;;;;;16.90;51.57;100318.97;5019843;28;20216;-74
2021/05/18 13:50:26;;;;;;;4.47;1.73;;;;;;;16.76;51.05;100325.84;5023375;28;20262;-74
2021/05/18 13:52:52;;;;;;;3.83;1.50;;;;;;;16.99;53.33;100318.44;5042095;28;20687;-74
2021/05/18 13:55:18;;;;;;;2.17;1.30;;;;;;;16.91;52.57;100324.16;5040019;28;20216;-74
2021/05/18 13:57:45;;;;;;;1.90;1.53;;;;;;;16.93;52.50;100324.91;5038624;28;20200;-74
2021/05/18 14:00:13;;;;;;;2.37;1.67;;;;;;;16.88;51.72;100324.31;5040390;28;20196;-74
2021/05/18 14:02:41;;;;;;;2.00;1.50;;;;;;;16.87;50.94;100332.31;5032626;28;20230;-74
2021/05/18 14:05:09;;;;;;;1.63;1.17;;;;;;;16.75;49.03;100332.03;5035319;28;20811;-74
2021/05/18 14:08:22;;;;;;;1.70;1.33;;;;;;;16.99;50.72;100318.44;5036876;28;20212;-74
2021/05/18 14:10:51;;;;;;;4.57;1.47;;;;;;;17.26;49.06;100328.31;5039175;28;20235;-74
2021/05/18 14:13:17;;;;;;;2.30;1.40;;;;;;;17.10;49.28;100313.41;5036611;28;20208;-74
2021/05/18 14:15:44;;;;;;;1.80;1.20;;;;;;;16.97;48.60;100334.34;5042556;28;20203;-74
2021/05/18 14:18:10;;;;;;;2.33;1.10;;;;;;;17.21;47.27;100328.56;5020167;28;20287;-74
2021/05/18 14:20:36;;;;;;;2.60;1.00;;;;;;;17.27;47.32;100319.47;5040564;28;20216;-74
2021/05/18 14:23:03;;;;;;;1.87;1.20;;;;;;;17.44;48.39;100323.75;5037055;28;20253;-74
2021/05/18 14:25:29;;;;;;;2.47;1.40;;;;;;;17.49;48.18;100327.78;5021664;28;20218;-74
2021/05/18 14:27:56;;;;;;;2.07;1.40;;;;;;;17.57;49.24;100311.50;5043073;28;20247;-74
2021/05/18 14:30:22;;;;;;;1.63;1.30;;;;;;;17.37;50.42;100307.44;5022593;28;20222;-74
2021/05/18 14:32:48;;;;;;;1.27;1.10;;;;;;;17.19;48.81;100312.84;5037692;28;20191;-74
2021/05/18 14:35:15;;;;;;;1.60;1.00;;;;;;;17.23;48.76;100309.09;5040193;28;20212;-74
2021/05/18 14:37:43;;;;;;;1.30;1.20;;;;;;;17.48;51.06;100293.63;5025617;28;20191;-73
2021/05/18 14:40:23;;;;;;;1.73;1.30;;;;;;;17.62;48.97;100295.44;5042267;28;20203;-73
2021/05/18 14:42:53;;;;;;;2.20;1.40;;;;;;;17.73;50.43;100299.13;5039083;28;20203;-74
2021/05/18 14:45:27;;;;;;;3.90;1.37;;;;;;;17.64;47.54;100307.56;5040644;28;20496;-73
2021/05/18 14:48:15;;;;;;;1.33;1.10;;;;;;;17.81;47.39;100305.69;5036495;28;20559;-74
2021/05/18 14:53:43;;;;;;;1.30;1.20;;;;;;;17.72;45.25;100326.41;5042853;28;20607;-73
2021/05/18 14:56:10;;;;;;;1.77;1.30;;;;;;;17.55;45.33;100305.47;5031316;28;20203;-74
2021/05/18 14:58:36;;;;;;;2.37;1.00;;;;;;;17.42;46.25;100313.28;5037695;28;20207;-73
2021/05/18 15:01:02;;;;;;;1.40;1.27;;;;;;;17.41;45.16;100316.84;5036675;28;20234;-74
2021/05/18 15:03:31;;;;;;;2.07;1.20;;;;;;;17.49;48.37;100311.13;5037454;28;20589;-74
2021/05/18 15:05:57;;;;;;;5.97;3.87;;;;;;;17.47;48.58;100300.69;5032854;28;20223;-73
2021/05/18 15:08:24;;;;;;;2.87;1.90;;;;;;;17.59;48.85;100305.22;5035471;28;20215;-73
2021/05/18 15:10:52;;;;;;;1.30;1.10;;;;;;;17.53;46.03;100308.22;5017211;28;20708;-73
2021/05/18 15:13:18;;;;;;;1.57;1.40;;;;;;;17.44;46.20;100313.19;5033200;28;20200;-73
2021/05/18 15:15:44;;;;;;;2.73;1.20;;;;;;;17.52;47.68;100308.31;5017340;28;20246;-74
2021/05/18 15:18:11;;;;;;;1.63;1.27;;;;;;;17.66;49.58;100296.91;5036674;28;20203;-74
2021/05/18 15:20:37;;;;;;;3.30;1.53;;;;;;;17.56;45.24;100315.09;5035743;28;20529;-74
2021/05/18 15:23:03;;;;;;;2.00;1.10;;;;;;;17.52;46.39;100309.16;5036986;28;20282;-74
2021/05/18 15:25:30;;;;;;;3.13;1.10;;;;;;;17.36;45.26;100322.41;5036671;28;20195;-74
2021/05/18 15:27:56;;;;;;;1.57;1.20;;;;;;;17.10;46.00;100310.78;5040782;28;20208;-74
2021/05/18 15:30:23;;;;;;;2.50;1.33;;;;;;;16.81;46.82;100317.66;5035922;28;20253;-74
2021/05/18 15:32:49;;;;;;;2.23;1.40;;;;;;;16.66;48.37;100316.78;5037679;28;20207;-74
2021/05/18 15:35:16;;;;;;;2.43;1.37;;;;;;;16.64;47.66;100318.66;5035112;28;20245;-74
2021/05/18 15:37:43;;;;;;;2.80;1.20;;;;;;;16.87;48.41;100319.13;5025941;28;20212;-73
2021/05/18 15:40:11;;;;;;;1.83;1.00;;;;;;;16.96;47.07;100322.09;5036837;28;20203;-74
2021/05/18 15:42:37;;;;;;;2.47;1.33;;;;;;;17.02;45.77;100326.16;5042303;28;20214;-74